Time;durP1;ratioP1;P1;durP2;ratioP2;P2;SDS_P1;SDS_P2;PMS_P1;PMS_P2;Temp;Humidity;BMP_temperature;BMP_pressure;BME280_temperature;BME280_humidity;BME280_pressure;Samples;Min_cycle;Max_cycle;Signal;HPM_P1;HPM_P2
2024/03/04 00:00:25;;;;;;;9.50;7.78;;;19.10;57.90;;;;;;5034437;28;20163;-48
2024/03/04 00:02:51;;;;;;;9.20;7.47;;;19.20;58.00;;;;;;5034825;28;20033;-48
2024/03/04 00:05:16;;;;;;;9.65;8.43;;;19.20;58.00;;;;;;5037283;28;20078;-50
2024/03/04 00:07:42;;;;;;;9.13;7.88;;;19.10;57.90;;;;;;5032135;28;20742;-53
2024/03/04 00:10:07;;;;;;;9.57;8.00;;;19.20;58.00;;;;;;5036744;28;20029;-48
2024/03/04 00:12:33;;;;;;;9.18;7.50;;;19.10;57.90;;;;;;5035607;28;20683;-47
2024/03/04 00:14:58;;;;;;;9.43;7.55;;;19.10;57.90;;;;;;5031707;28;20025;-52
2024/03/04 00:17:25;;;;;;;8.90;8.00;;;19.10;57.90;;;;;;5033390;28;20109;-51
2024/03/04 00:19:51;;;;;;;9.02;7.68;;;19.20;58.00;;;;;;5031494;28;20028;-50
2024/03/04 00:22:17;;;;;;;9.52;7.45;;;19.20;58.00;;;;;;5033467;28;20026;-49
2024/03/04 00:24:44;;;;;;;9.63;7.55;;;19.10;57.90;;;;;;5032278;28;20347;-50
2024/03/04 00:27:10;;;;;;;10.75;7.97;;;19.10;57.90;;;;;;5034132;28;20029;-52
2024/03/04 00:29:35;;;;;;;9.85;7.00;;;19.10;58.00;;;;;;5035039;28;20036;-48
2024/03/04 00:32:01;;;;;;;8.57;7.68;;;19.10;57.90;;;;;;5032900;28;20518;-48
2024/03/04 00:34:28;;;;;;;9.82;8.50;;;19.10;58.50;;;;;;5038086;28;20443;-51
2024/03/04 00:36:53;;;;;;;8.07;7.20;;;19.10;58.00;;;;;;5030875;28;20029;-50
2024/03/04 00:39:19;;;;;;;9.02;7.20;;;19.20;58.00;;;;;;5033704;28;21023;-50
2024/03/04 00:41:46;;;;;;;9.18;7.50;;;19.10;57.90;;;;;;5030912;28;20025;-48
2024/03/04 00:44:11;;;;;;;10.18;7.18;;;19.10;57.90;;;;;;5033706;28;20544;-50
2024/03/04 00:46:41;;;;;;;8.02;7.07;;;19.10;57.90;;;;;;5033677;28;20025;-49
2024/03/04 00:49:10;;;;;;;7.93;7.05;;;19.10;57.90;;;;;;5034613;28;20079;-48
2024/03/04 00:51:38;;;;;;;9.27;7.78;;;19.10;57.90;;;;;;5034330;28;20037;-51
2024/03/04 00:54:05;;;;;;;8.13;6.95;;;19.10;57.90;;;;;;5032018;28;20030;-52
2024/03/04 00:56:30;;;;;;;9.02;8.13;;;19.10;57.90;;;;;;5033905;28;20037;-50
2024/03/04 00:58:56;;;;;;;9.00;7.10;;;19.10;57.90;;;;;;5033004;28;20647;-51
2024/03/04 01:01:23;;;;;;;8.10;6.72;;;19.10;57.90;;;;;;5033456;28;20044;-50
2024/03/04 01:03:48;;;;;;;9.75;7.90;;;19.10;57.90;;;;;;5030578;28;20560;-51
2024/03/04 01:06:14;;;;;;;7.47;6.32;;;19.10;57.90;;;;;;5027528;28;20037;-51
2024/03/04 01:08:39;;;;;;;10.13;7.53;;;19.10;58.00;;;;;;5036822;28;20051;-52
2024/03/04 01:11:05;;;;;;;8.90;7.72;;;19.10;58.00;;;;;;5032000;28;20109;-47
2024/03/04 01:13:32;;;;;;;7.97;7.10;;;19.00;58.00;;;;;;5030600;28;20041;-51
2024/03/04 01:15:58;;;;;;;8.88;7.03;;;19.00;58.10;;;;;;5036130;28;20108;-50
2024/03/04 01:18:24;;;;;;;7.95;7.00;;;19.00;58.10;;;;;;5035851;28;20124;-49
2024/03/04 01:20:52;;;;;;;9.27;7.93;;;19.00;58.20;;;;;;5035759;28;20120;-49
2024/03/04 01:23:17;;;;;;;9.43;7.05;;;18.90;58.20;;;;;;5033587;28;20551;-51
2024/03/04 01:25:44;;;;;;;8.82;6.20;;;18.90;58.20;;;;;;5037342;28;20029;-49
2024/03/04 01:28:10;;;;;;;7.60;6.40;;;18.90;58.30;;;;;;5035696;28;20497;-53
2024/03/04 01:30:37;;;;;;;8.43;6.82;;;18.90;58.30;;;;;;5022716;28;20056;-47
2024/03/04 01:33:06;;;;;;;7.65;6.85;;;18.90;58.40;;;;;;5036407;28;20137;-52
2024/03/04 01:35:32;;;;;;;7.20;6.50;;;18.90;58.40;;;;;;5035981;28;20041;-49
2024/03/04 01:37:58;;;;;;;8.77;7.07;;;18.90;58.50;;;;;;5038681;28;20729;-50
2024/03/04 01:40:24;;;;;;;7.60;6.55;;;18.80;58.40;;;;;;5040882;28;20043;-51
2024/03/04 01:42:50;;;;;;;7.80;6.90;;;18.80;58.40;;;;;;5039283;28;20417;-49
2024/03/04 01:45:23;;;;;;;7.75;6.63;;;18.80;58.40;;;;;;5037293;28;20067;-53
2024/03/04 01:47:51;;;;;;;8.90;7.53;;;18.80;58.40;;;;;;5038292;28;20033;-52
2024/03/04 01:50:18;;;;;;;7.88;6.45;;;18.80;58.40;;;;;;5034753;28;20030;-48
2024/03/04 01:52:44;;;;;;;6.90;6.20;;;18.80;58.40;;;;;;5036889;28;20029;-50
2024/03/04 01:55:10;;;;;;;7.65;6.70;;;18.80;58.40;;;;;;5036510;28;20033;-50
2024/03/04 01:57:39;;;;;;;8.40;6.80;;;18.80;58.30;;;;;;5035739;28;20040;-56
2024/03/04 02:00:11;;;;;;;7.38;6.50;;;18.80;58.30;;;;;;5018985;28;20090;-52
2024/03/04 02:02:37;;;;;;;7.75;6.97;;;18.90;58.30;;;;;;5035489;28;20374;-49
2024/03/04 02:05:08;;;;;;;7.93;6.15;;;18.90;58.10;;;;;;5033392;28;20033;-53
2024/03/04 02:07:38;;;;;;;7.32;6.10;;;19.00;58.00;;;;;;5037072;28;20116;-55
2024/03/04 02:10:05;;;;;;;7.60;6.40;;;19.00;57.90;;;;;;5004120;28;20034;-48
2024/03/04 02:12:32;;;;;;;7.70;6.53;;;19.10;57.80;;;;;;5038146;28;20120;-52
2024/03/04 02:14:59;;;;;;;6.45;5.45;;;19.20;57.60;;;;;;5014829;28;20040;-50
2024/03/04 02:17:27;;;;;;;7.32;6.10;;;19.20;57.40;;;;;;5037232;28;20473;-49
2024/03/04 02:20:03;;;;;;;6.13;5.53;;;19.30;57.30;;;;;;5030625;28;20052;-52
2024/03/04 02:22:29;;;;;;;6.43;5.72;;;19.40;57.20;;;;;;5035622;28;20035;-51
2024/03/04 02:24:54;;;;;;;6.95;6.25;;;19.40;57.00;;;;;;5033534;28;20033;-53
2024/03/04 02:27:23;;;;;;;6.03;5.40;;;19.50;57.00;;;;;;5033714;28;20028;-56
2024/03/04 02:29:48;;;;;;;6.88;6.13;;;19.50;56.80;;;;;;5038870;28;20034;-53
2024/03/04 02:32:17;;;;;;;7.88;6.05;;;19.50;56.70;;;;;;5033885;28;20441;-53
2024/03/04 02:34:47;;;;;;;6.38;5.78;;;19.60;56.70;;;;;;5032094;28;20068;-52
2024/03/04 02:37:13;;;;;;;6.60;5.70;;;19.60;56.70;;;;;;5032397;28;20032;-57
2024/03/04 02:39:40;;;;;;;6.03;5.43;;;19.60;56.60;;;;;;5038467;28;20119;-52
2024/03/04 02:42:06;;;;;;;7.22;4.93;;;19.70;56.50;;;;;;5033280;28;20030;-54
2024/03/04 02:44:32;;;;;;;7.00;5.13;;;19.70;56.50;;;;;;5033524;28;20025;-49
2024/03/04 02:46:58;;;;;;;7.50;5.90;;;19.70;56.50;;;;;;5035647;28;20052;-52
2024/03/04 02:49:23;;;;;;;6.55;5.90;;;19.70;56.50;;;;;;5002186;28;20030;-52
2024/03/04 02:51:49;;;;;;;7.47;5.97;;;19.70;56.50;;;;;;5035136;28;20061;-49
2024/03/04 02:54:14;;;;;;;6.65;5.80;;;19.70;56.50;;;;;;5031560;28;20469;-55
2024/03/04 02:56:40;;;;;;;6.25;5.22;;;19.70;56.50;;;;;;5032461;28;20025;-54
2024/03/04 02:59:05;;;;;;;6.45;5.53;;;19.70;56.60;;;;;;5033120;28;20030;-53
2024/03/04 03:01:31;;;;;;;6.53;5.82;;;19.70;56.60;;;;;;5031500;28;20120;-51
2024/03/04 03:03:57;;;;;;;6.63;5.32;;;19.60;56.60;;;;;;5029976;28;20036;-50
2024/03/04 03:06:23;;;;;;;6.03;5.03;;;19.60;56.70;;;;;;5017293;28;20033;-54
2024/03/04 03:08:49;;;;;;;6.15;5.10;;;19.60;56.70;;;;;;5032820;28;20053;-49
2024/03/04 03:11:16;;;;;;;6.00;5.18;;;19.60;56.80;;;;;;5034690;28;20090;-56
2024/03/04 03:13:42;;;;;;;5.78;5.13;;;19.50;56.80;;;;;;5030523;28;20477;-51
2024/03/04 03:16:22;;;;;;;6.53;5.25;;;19.50;56.90;;;;;;5030840;28;20108;-50
2024/03/04 03:18:49;;;;;;;6.60;5.57;;;19.50;57.00;;;;;;5029432;28;20033;-49
2024/03/04 03:21:15;;;;;;;5.68;4.82;;;19.50;57.00;;;;;;5019945;28;20035;-51
2024/03/04 03:23:42;;;;;;;5.38;4.65;;;19.50;57.10;;;;;;5027608;28;20037;-52
2024/03/04 03:26:10;;;;;;;6.35;5.40;;;19.40;57.10;;;;;;5030739;28;20091;-52
2024/03/04 03:28:38;;;;;;;5.45;4.50;;;19.40;57.20;;;;;;5009295;28;20040;-51
2024/03/04 03:31:04;;;;;;;5.55;4.90;;;19.30;57.20;;;;;;5026800;28;20033;-52
2024/03/04 03:33:29;;;;;;;6.05;5.45;;;19.40;57.20;;;;;;5033056;28;20502;-53
2024/03/04 03:35:55;;;;;;;5.57;5.05;;;19.30;57.30;;;;;;5035475;28;20049;-49
2024/03/04 03:38:20;;;;;;;6.00;5.40;;;19.30;57.20;;;;;;5040096;28;20029;-53
2024/03/04 03:40:46;;;;;;;4.95;4.45;;;19.30;58.00;;;;;;5033450;28;20124;-49
2024/03/04 03:43:12;;;;;;;5.18;4.68;;;19.30;57.40;;;;;;5033334;28;20893;-53
2024/03/04 03:45:38;;;;;;;5.43;4.90;;;19.20;57.40;;;;;;5032354;28;20119;-49
2024/03/04 03:48:04;;;;;;;5.70;5.05;;;19.20;57.40;;;;;;5030331;28;20519;-52
2024/03/04 03:50:30;;;;;;;6.05;5.00;;;19.20;57.50;;;;;;5030574;28;20461;-55
2024/03/04 03:52:55;;;;;;;5.85;5.13;;;19.20;57.50;;;;;;5035339;28;20329;-52
2024/03/04 03:55:21;;;;;;;6.38;4.97;;;19.20;57.50;;;;;;5029701;28;20029;-51
2024/03/04 03:57:46;;;;;;;6.18;4.65;;;19.10;57.60;;;;;;5033731;28;20057;-52
2024/03/04 04:00:13;;;;;;;5.78;4.93;;;19.10;57.60;;;;;;5034163;28;20476;-51
2024/03/04 04:02:38;;;;;;;5.13;4.53;;;19.10;57.60;;;;;;5034117;28;20033;-56
2024/03/04 04:05:04;;;;;;;5.93;5.13;;;19.10;57.60;;;;;;5026091;28;20040;-51
2024/03/04 04:07:30;;;;;;;5.55;4.90;;;19.00;57.60;;;;;;5027163;28;20033;-48
2024/03/04 04:09:55;;;;;;;6.38;5.03;;;19.10;57.70;;;;;;5030869;28;20033;-50
2024/03/04 04:12:21;;;;;;;7.38;4.90;;;19.00;57.70;;;;;;5032631;28;20048;-52
2024/03/04 04:14:46;;;;;;;5.72;5.05;;;19.00;57.70;;;;;;5035209;28;20025;-53
2024/03/04 04:17:12;;;;;;;6.07;5.10;;;19.00;57.80;;;;;;5032854;28;20029;-47
2024/03/04 04:19:38;;;;;;;4.95;4.45;;;19.00;57.70;;;;;;5029479;28;20039;-50
2024/03/04 04:22:04;;;;;;;5.75;5.15;;;19.00;57.80;;;;;;5032577;28;20029;-48
2024/03/04 04:24:30;;;;;;;6.38;5.78;;;19.00;57.80;;;;;;5030340;28;20084;-48
2024/03/04 04:26:56;;;;;;;5.28;4.78;;;19.00;57.90;;;;;;5033543;28;20032;-51
2024/03/04 04:29:21;;;;;;;4.85;4.40;;;19.00;57.90;;;;;;5033012;28;20029;-55
2024/03/04 04:31:46;;;;;;;5.13;4.25;;;19.00;57.90;;;;;;5035890;28;20064;-49
2024/03/04 04:34:12;;;;;;;5.90;4.75;;;18.90;57.90;;;;;;5032269;28;20029;-49
2024/03/04 04:36:37;;;;;;;4.82;4.32;;;18.90;57.90;;;;;;5031342;28;20041;-53
2024/03/04 04:39:03;;;;;;;5.18;4.63;;;18.90;57.90;;;;;;5026812;28;20112;-53
2024/03/04 04:41:29;;;;;;;5.10;4.60;;;18.90;57.90;;;;;;5033333;28;20029;-47
2024/03/04 04:43:54;;;;;;;5.65;5.05;;;18.90;57.90;;;;;;5030706;28;20386;-49
2024/03/04 04:46:20;;;;;;;5.10;4.60;;;18.90;58.00;;;;;;5035617;28;20386;-54
2024/03/04 04:48:45;;;;;;;5.32;4.80;;;18.90;57.90;;;;;;5034024;28;20056;-49
2024/03/04 04:51:12;;;;;;;5.28;4.45;;;18.90;58.00;;;;;;5039288;28;20037;-48
2024/03/04 04:53:37;;;;;;;4.93;4.40;;;18.90;58.00;;;;;;5034215;28;20730;-49
2024/03/04 04:56:03;;;;;;;5.63;4.80;;;18.90;58.00;;;;;;5038435;28;20025;-52
2024/03/04 04:58:29;;;;;;;6.38;4.85;;;18.90;58.00;;;;;;5036113;28;20117;-49
2024/03/04 05:00:56;;;;;;;6.18;4.90;;;18.80;57.90;;;;;;5040948;28;20033;-48
2024/03/04 05:03:21;;;;;;;5.32;4.82;;;18.80;57.90;;;;;;5037157;28;20527;-54
2024/03/04 05:05:47;;;;;;;4.97;4.45;;;18.80;57.90;;;;;;5038178;28;20041;-50
2024/03/04 05:08:12;;;;;;;5.32;4.82;;;18.80;57.90;;;;;;5039849;28;20460;-50
2024/03/04 05:10:39;;;;;;;5.40;4.90;;;18.80;57.90;;;;;;5036277;28;20045;-57
2024/03/04 05:13:05;;;;;;;5.68;5.07;;;18.80;57.90;;;;;;5033268;28;20109;-53
2024/03/04 05:15:31;;;;;;;5.40;4.40;;;18.80;57.90;;;;;;5031168;28;20049;-50
2024/03/04 05:17:57;;;;;;;5.05;4.32;;;18.80;58.00;;;;;;5034824;28;20063;-54
2024/03/04 05:20:23;;;;;;;5.70;4.72;;;18.80;58.60;;;;;;5037984;28;20026;-50
2024/03/04 05:22:48;;;;;;;5.32;4.82;;;18.80;58.00;;;;;;5038106;28;20091;-50
2024/03/04 05:25:14;;;;;;;5.47;4.78;;;18.80;57.90;;;;;;5040784;28;20025;-54
2024/03/04 05:27:39;;;;;;;4.68;4.28;;;18.80;57.90;;;;;;5033633;28;21036;-48
2024/03/04 05:30:05;;;;;;;5.45;4.18;;;18.80;57.90;;;;;;5039829;28;20104;-51
2024/03/04 05:32:31;;;;;;;6.95;4.70;;;18.80;57.90;;;;;;5041483;28;20489;-51
2024/03/04 05:34:56;;;;;;;5.40;4.70;;;18.80;57.90;;;;;;5045907;28;20025;-57
2024/03/04 05:37:23;;;;;;;5.70;4.50;;;18.80;57.90;;;;;;5036240;28;20682;-48
2024/03/04 05:39:49;;;;;;;5.00;4.50;;;18.80;57.90;;;;;;5043548;28;20147;-49
2024/03/04 05:42:14;;;;;;;5.55;5.05;;;18.80;57.90;;;;;;5035038;28;20104;-49
2024/03/04 05:44:39;;;;;;;4.82;4.32;;;18.80;57.90;;;;;;5040761;28;20025;-52
2024/03/04 05:47:05;;;;;;;4.78;4.30;;;18.80;57.80;;;;;;5022549;28;20025;-55
2024/03/04 05:49:31;;;;;;;4.32;3.85;;;18.80;57.70;;;;;;5039736;28;20029;-48
2024/03/04 05:51:58;;;;;;;5.55;4.85;;;18.80;57.80;;;;;;5035059;28;20068;-48
2024/03/04 05:54:25;;;;;;;6.38;4.72;;;18.80;57.70;;;;;;5034761;28;20022;-52
2024/03/04 05:56:50;;;;;;;4.88;4.38;;;18.90;57.70;;;;;;5024196;28;20383;-49
2024/03/04 05:59:16;;;;;;;4.85;4.35;;;18.90;57.60;;;;;;5036666;28;20026;-47
2024/03/04 06:01:42;;;;;;;5.15;4.60;;;18.90;57.60;;;;;;5036350;28;20040;-54
2024/03/04 06:04:08;;;;;;;5.10;4.57;;;18.90;57.60;;;;;;5031458;28;20029;-50
2024/03/04 06:06:33;;;;;;;4.90;4.40;;;18.90;57.50;;;;;;5038427;28;20512;-52
2024/03/04 06:09:02;;;;;;;5.63;4.82;;;18.90;57.50;;;;;;5030898;28;20043;-51
2024/03/04 06:11:28;;;;;;;5.40;4.88;;;18.90;57.50;;;;;;5033697;28;20452;-49
2024/03/04 06:13:53;;;;;;;5.15;4.32;;;18.90;57.40;;;;;;5035960;28;20114;-51
2024/03/04 06:16:20;;;;;;;5.22;4.63;;;19.00;57.30;;;;;;5034063;28;20026;-53
2024/03/04 06:18:46;;;;;;;5.38;3.88;;;19.00;57.30;;;;;;5036839;28;20033;-51
2024/03/04 06:21:12;;;;;;;5.25;4.28;;;19.00;57.30;;;;;;5033890;28;20025;-52
2024/03/04 06:23:37;;;;;;;4.50;4.00;;;19.00;57.30;;;;;;5035327;28;20335;-51
2024/03/04 06:26:08;;;;;;;5.47;4.88;;;19.00;57.30;;;;;;5034745;28;20026;-53
2024/03/04 06:28:35;;;;;;;4.75;4.22;;;19.10;57.20;;;;;;5030523;28;20588;-51
2024/03/04 06:31:00;;;;;;;5.53;4.50;;;19.10;57.10;;;;;;5032400;28;20041;-50
2024/03/04 06:33:26;;;;;;;4.72;4.10;;;19.10;57.20;;;;;;5038113;28;20048;-50
2024/03/04 06:35:51;;;;;;;4.93;4.43;;;19.10;57.10;;;;;;5030465;28;20505;-52
2024/03/04 06:38:17;;;;;;;4.50;4.05;;;19.10;57.10;;;;;;5038070;28;20112;-52
2024/03/04 06:40:43;;;;;;;5.20;4.53;;;19.20;57.10;;;;;;5035538;28;20044;-51
2024/03/04 06:43:09;;;;;;;5.60;3.78;;;19.20;57.10;;;;;;5038613;28;20038;-50
2024/03/04 06:45:36;;;;;;;6.13;4.13;;;19.20;57.00;;;;;;5029895;28;20036;-49
2024/03/04 06:48:03;;;;;;;5.13;3.67;;;19.20;57.00;;;;;;5038079;28;20029;-52
2024/03/04 06:50:29;;;;;;;5.20;4.32;;;19.20;57.00;;;;;;5032983;28;20033;-48
2024/03/04 06:52:54;;;;;;;4.68;4.18;;;19.20;57.00;;;;;;5036348;28;20044;-49
2024/03/04 06:55:20;;;;;;;5.35;4.55;;;19.20;57.00;;;;;;5036744;28;20025;-48
2024/03/04 06:57:46;;;;;;;5.78;4.85;;;19.20;57.00;;;;;;5022994;28;20383;-49
2024/03/04 07:00:12;;;;;;;7.70;4.82;;;19.20;57.00;;;;;;5029125;28;20036;-49
2024/03/04 07:02:38;;;;;;;5.50;4.47;;;19.20;56.90;;;;;;5024014;28;20482;-50
2024/03/04 07:05:04;;;;;;;5.18;4.18;;;19.20;56.90;;;;;;5034721;28;20041;-53
2024/03/04 07:07:29;;;;;;;5.13;4.25;;;19.30;57.00;;;;;;5030324;28;21429;-51
2024/03/04 07:09:55;;;;;;;4.93;4.40;;;19.30;57.00;;;;;;5034386;28;20040;-49
2024/03/04 07:12:20;;;;;;;4.88;4.32;;;19.20;56.90;;;;;;5036370;28;20122;-48
2024/03/04 07:14:46;;;;;;;5.72;4.70;;;19.30;56.90;;;;;;5033253;28;20083;-49
2024/03/04 07:17:11;;;;;;;5.05;4.45;;;19.30;57.00;;;;;;5033751;28;20025;-54
2024/03/04 07:19:37;;;;;;;5.53;4.35;;;19.30;56.90;;;;;;5031434;28;20027;-49
2024/03/04 07:22:03;;;;;;;5.85;4.13;;;19.30;56.90;;;;;;5037046;28;20025;-50
2024/03/04 07:24:28;;;;;;;5.38;3.95;;;19.30;56.90;;;;;;5029705;28;20372;-48
2024/03/04 07:26:54;;;;;;;6.03;4.78;;;19.30;56.90;;;;;;5038633;28;20083;-50
2024/03/04 07:29:19;;;;;;;6.40;4.00;;;19.30;57.00;;;;;;5033164;28;20021;-54
2024/03/04 07:31:46;;;;;;;5.85;4.20;;;19.30;56.90;;;;;;5033809;28;20580;-48
2024/03/04 07:34:11;;;;;;;6.00;4.75;;;19.30;56.90;;;;;;5028181;28;20040;-55
2024/03/04 07:36:37;;;;;;;5.82;4.70;;;19.30;56.80;;;;;;5036372;28;20032;-48
2024/03/04 07:39:03;;;;;;;6.65;4.90;;;19.30;56.80;;;;;;5031702;28;20063;-50
2024/03/04 07:41:29;;;;;;;6.32;5.45;;;19.30;56.90;;;;;;5036584;28;20026;-50
2024/03/04 07:43:55;;;;;;;5.57;4.68;;;19.30;56.90;;;;;;5030068;28;20036;-56
2024/03/04 07:46:21;;;;;;;7.07;5.20;;;19.30;56.80;;;;;;5035115;28;20483;-48
2024/03/04 07:48:47;;;;;;;8.32;5.20;;;19.30;57.00;;;;;;5012719;28;20040;-48
2024/03/04 07:51:12;;;;;;;5.55;5.03;;;19.30;56.80;;;;;;5012121;28;20048;-54
2024/03/04 07:53:38;;;;;;;8.70;4.88;;;19.40;56.90;;;;;;5028761;28;20070;-48
2024/03/04 07:56:03;;;;;;;6.40;5.43;;;19.40;56.90;;;;;;5031607;28;20063;-49
2024/03/04 07:58:29;;;;;;;6.63;5.28;;;19.40;56.90;;;;;;5027872;28;20482;-49
2024/03/04 08:00:54;;;;;;;6.53;4.97;;;19.30;56.90;;;;;;5030232;28;20033;-52
2024/03/04 08:03:20;;;;;;;8.07;5.68;;;19.30;57.00;;;;;;5029680;28;20037;-49
2024/03/04 08:05:47;;;;;;;7.75;5.63;;;19.20;57.00;;;;;;5031232;28;20032;-48
2024/03/04 08:08:13;;;;;;;7.80;5.82;;;19.20;57.10;;;;;;5029941;28;20037;-55
2024/03/04 08:10:38;;;;;;;8.15;5.47;;;19.20;57.10;;;;;;5030733;28;25336;-48
2024/03/04 08:13:04;;;;;;;8.07;5.40;;;19.20;57.20;;;;;;5030050;28;21045;-55
2024/03/04 08:15:30;;;;;;;7.43;5.85;;;19.10;57.20;;;;;;5031096;28;20600;-49
2024/03/04 08:17:55;;;;;;;8.40;6.40;;;19.10;57.30;;;;;;5031946;28;20030;-50
2024/03/04 08:20:21;;;;;;;10.15;6.07;;;19.10;58.00;;;;;;5032008;28;20039;-51
2024/03/04 08:22:48;;;;;;;7.05;5.38;;;19.00;57.40;;;;;;5031996;28;20052;-52
2024/03/04 08:25:16;;;;;;;7.63;5.85;;;19.00;57.50;;;;;;5030119;28;20041;-51
2024/03/04 08:27:42;;;;;;;9.20;5.88;;;19.00;57.50;;;;;;5029418;28;20140;-51
2024/03/04 08:30:09;;;;;;;7.28;5.10;;;19.00;57.60;;;;;;5023252;28;21389;-51
2024/03/04 08:32:34;;;;;;;7.13;6.18;;;19.00;57.60;;;;;;5005046;28;20044;-50
2024/03/04 08:35:00;;;;;;;7.43;5.40;;;18.90;57.60;;;;;;5031534;28;20033;-52
2024/03/04 08:37:27;;;;;;;6.72;5.57;;;18.90;57.70;;;;;;5026349;28;20065;-55
2024/03/04 08:39:52;;;;;;;7.93;5.63;;;18.90;57.70;;;;;;5029672;28;20033;-51
2024/03/04 08:42:18;;;;;;;6.88;5.65;;;18.90;57.70;;;;;;5033114;28;20487;-54
2024/03/04 08:44:43;;;;;;;7.72;5.47;;;18.90;57.70;;;;;;5026243;28;20030;-51
2024/03/04 08:47:09;;;;;;;7.22;5.00;;;18.90;57.70;;;;;;5025521;28;20067;-50
2024/03/04 08:49:35;;;;;;;7.82;5.38;;;18.90;57.70;;;;;;5024433;28;20700;-50
2024/03/04 08:52:01;;;;;;;8.43;5.75;;;18.90;57.70;;;;;;5030134;28;20514;-51
2024/03/04 08:54:29;;;;;;;8.82;5.82;;;18.90;57.70;;;;;;5013492;28;20101;-59
2024/03/04 08:56:54;;;;;;;6.90;5.63;;;18.90;57.70;;;;;;5026665;28;20375;-51
2024/03/04 08:59:20;;;;;;;7.63;5.72;;;18.90;57.70;;;;;;5030825;28;20053;-52
2024/03/04 09:01:45;;;;;;;7.60;6.05;;;18.90;57.70;;;;;;5028433;28;20036;-50
2024/03/04 09:04:11;;;;;;;6.03;5.22;;;18.90;57.70;;;;;;5027535;28;20396;-50
2024/03/04 09:06:36;;;;;;;6.47;5.30;;;18.90;57.70;;;;;;5027340;28;20021;-49
2024/03/04 09:09:02;;;;;;;8.15;5.80;;;18.90;57.60;;;;;;5029218;28;20491;-50
2024/03/04 09:11:27;;;;;;;7.82;5.90;;;18.90;57.60;;;;;;5029117;28;20041;-49
2024/03/04 09:13:55;;;;;;;7.93;5.65;;;18.90;57.60;;;;;;5031900;28;20108;-51
2024/03/04 09:16:21;;;;;;;6.90;5.70;;;18.90;57.60;;;;;;5030413;28;20075;-50
2024/03/04 09:18:46;;;;;;;7.05;6.05;;;18.90;57.60;;;;;;5033042;28;20040;-51
2024/03/04 09:21:13;;;;;;;6.13;5.38;;;18.90;57.50;;;;;;5026269;28;20056;-52
2024/03/04 09:23:39;;;;;;;7.90;5.55;;;18.90;57.50;;;;;;5032014;28;20024;-53
2024/03/04 09:26:08;;;;;;;7.95;5.88;;;18.90;58.10;;;;;;5033076;28;20037;-51
2024/03/04 09:28:34;;;;;;;8.45;5.45;;;18.90;57.50;;;;;;5027434;28;20526;-52
2024/03/04 09:30:59;;;;;;;7.10;5.25;;;19.00;57.50;;;;;;5028298;28;20048;-52
2024/03/04 09:33:25;;;;;;;7.05;5.82;;;19.00;57.50;;;;;;5030884;28;20072;-49
2024/03/04 09:35:51;;;;;;;6.35;5.13;;;18.90;57.40;;;;;;5037149;28;20041;-51
2024/03/04 09:38:16;;;;;;;6.18;5.38;;;19.00;57.50;;;;;;5033479;28;20176;-52
2024/03/04 09:40:44;;;;;;;6.38;4.97;;;19.00;57.50;;;;;;5032711;28;20423;-51
2024/03/04 09:43:12;;;;;;;6.10;5.10;;;19.00;57.40;;;;;;5035039;28;20481;-51
2024/03/04 09:45:40;;;;;;;6.50;5.13;;;19.00;57.40;;;;;;5036380;28;20116;-51
2024/03/04 09:48:10;;;;;;;7.22;5.00;;;19.00;57.40;;;;;;5033650;28;20036;-51
2024/03/04 09:50:36;;;;;;;5.90;5.13;;;19.00;57.40;;;;;;5035749;28;20045;-50
2024/03/04 09:53:02;;;;;;;6.22;5.63;;;19.00;57.40;;;;;;5034784;28;20025;-50
2024/03/04 09:55:28;;;;;;;8.48;5.80;;;19.00;57.30;;;;;;5029411;28;20037;-52
2024/03/04 09:57:54;;;;;;;8.13;5.60;;;19.10;57.40;;;;;;5032773;28;20405;-51
2024/03/04 10:00:21;;;;;;;7.13;6.18;;;19.10;57.30;;;;;;5032466;28;20495;-55
2024/03/04 10:02:47;;;;;;;6.90;5.95;;;19.10;57.30;;;;;;5034253;28;20116;-50
2024/03/04 10:05:13;;;;;;;7.90;5.85;;;19.10;57.30;;;;;;5030094;28;20116;-49
2024/03/04 10:07:39;;;;;;;6.75;5.95;;;19.10;57.20;;;;;;5014392;28;20075;-51
2024/03/04 10:10:08;;;;;;;9.80;6.82;;;19.20;57.20;;;;;;5033221;28;20029;-51
2024/03/04 10:12:34;;;;;;;7.95;6.32;;;19.20;57.20;;;;;;5026848;28;20025;-50
2024/03/04 10:15:00;;;;;;;9.32;7.38;;;19.20;57.10;;;;;;5030880;28;20403;-49
2024/03/04 10:17:26;;;;;;;10.15;8.00;;;19.20;57.10;;;;;;5024846;28;20026;-49
2024/03/04 10:19:59;;;;;;;9.60;7.40;;;19.20;57.00;;;;;;5029352;28;20037;-54
2024/03/04 10:22:30;;;;;;;10.25;7.85;;;19.20;57.00;;;;;;5030848;28;20037;-52
2024/03/04 10:25:05;;;;;;;9.90;7.15;;;19.20;56.90;;;;;;5030546;28;20120;-55
2024/03/04 10:27:38;;;;;;;9.57;7.72;;;19.20;56.80;;;;;;5033939;28;20022;-50
2024/03/04 10:30:14;;;;;;;7.57;6.80;;;19.20;56.80;;;;;;5026593;28;20387;-50
2024/03/04 10:32:45;;;;;;;8.90;7.53;;;19.30;56.80;;;;;;5053706;23;20041;-48
2024/03/04 10:35:10;;;;;;;8.90;7.82;;;19.30;56.80;;;;;;5046513;28;20041;-55
2024/03/04 10:37:36;;;;;;;9.65;7.63;;;19.30;56.80;;;;;;5036967;28;20431;-50
2024/03/04 10:40:04;;;;;;;10.35;7.47;;;19.30;56.80;;;;;;5041299;28;20037;-49
2024/03/04 10:42:29;;;;;;;10.20;7.85;;;19.30;56.80;;;;;;5028460;28;20029;-48
2024/03/04 10:44:56;;;;;;;9.80;8.25;;;19.30;56.80;;;;;;5037208;28;20047;-52
2024/03/04 10:47:24;;;;;;;10.63;7.97;;;19.30;56.80;;;;;;5034825;28;20037;-52
2024/03/04 10:49:52;;;;;;;9.75;8.40;;;19.30;56.70;;;;;;5038391;28;20118;-55
2024/03/04 10:52:18;;;;;;;8.57;7.35;;;19.30;56.70;;;;;;5040422;28;20191;-48
2024/03/04 10:54:45;;;;;;;9.80;8.20;;;19.30;56.70;;;;;;5037109;28;20633;-51
2024/03/04 10:57:29;;;;;;;10.88;8.35;;;19.40;56.70;;;;;;5039747;28;20521;-49
2024/03/04 11:00:02;;;;;;;11.45;8.50;;;19.30;56.60;;;;;;5036932;28;20040;-48
2024/03/04 11:02:48;;;;;;;9.13;8.23;;;19.30;56.50;;;;;;5036732;28;20065;-51
2024/03/04 11:05:16;;;;;;;;;;;19.40;56.60;;;;;;5024710;28;20119;-49
2024/03/04 11:07:43;;;;;;;10.45;8.88;;;19.30;56.50;;;;;;5037579;28;19936;-48
2024/03/04 11:10:21;;;;;;;12.15;8.45;;;19.40;56.60;;;;;;5038727;28;20041;-52
2024/03/04 11:13:18;;;;;;;11.20;9.15;;;19.40;56.50;;;;;;5035378;28;20576;-50
2024/03/04 11:15:56;;;;;;;10.32;8.80;;;19.40;56.50;;;;;;5034547;28;20030;-52
2024/03/04 11:19:00;;;;;;;10.68;8.65;;;19.40;56.60;;;;;;5033311;28;20112;-48
2024/03/04 11:21:27;;;;;;;10.00;8.70;;;19.40;56.60;;;;;;5002221;28;20033;-48
2024/03/04 11:23:53;;;;;;;10.50;8.98;;;19.40;56.50;;;;;;5033535;28;20853;-53
2024/03/04 11:26:21;;;;;;;11.68;9.00;;;19.40;56.50;;;;;;5025873;28;20566;-54
2024/03/04 11:28:47;;;;;;;11.35;8.77;;;19.40;56.50;;;;;;5023432;28;20033;-54
2024/03/04 11:31:26;;;;;;;11.40;8.18;;;19.40;56.50;;;;;;5029416;28;20045;-55
2024/03/04 11:34:00;;;;;;;10.43;9.30;;;19.40;56.50;;;;;;5028895;28;20051;-49
2024/03/04 11:36:25;;;;;;;11.05;9.50;;;19.40;56.50;;;;;;5035280;28;20029;-51
2024/03/04 11:38:51;;;;;;;12.02;10.63;;;19.50;56.50;;;;;;5031687;28;20090;-55
2024/03/04 11:41:38;;;;;;;10.95;9.65;;;19.50;56.50;;;;;;5029938;28;20091;-50
2024/03/04 11:44:04;;;;;;;12.80;10.32;;;19.50;56.50;;;;;;5030229;28;20144;-50
2024/03/04 11:46:33;;;;;;;11.20;9.95;;;19.50;56.50;;;;;;5026282;28;20128;-57
2024/03/04 11:49:24;;;;;;;16.50;11.70;;;19.50;56.50;;;;;;5027950;28;20142;-54
2024/03/04 11:51:59;;;;;;;17.05;13.13;;;19.50;56.50;;;;;;5025876;28;20040;-52
2024/03/04 11:54:46;;;;;;;19.98;14.00;;;19.50;56.60;;;;;;5026933;28;20120;-52
2024/03/04 11:57:12;;;;;;;22.15;15.57;;;19.50;56.60;;;;;;5033830;28;20513;-54
2024/03/04 11:59:40;;;;;;;19.35;14.88;;;19.50;56.60;;;;;;5030237;28;20075;-50
2024/03/04 12:02:09;;;;;;;31.08;21.00;;;19.50;56.60;;;;;;5027571;28;20534;-49
2024/03/04 12:04:36;;;;;;;50.22;28.95;;;19.60;57.40;;;;;;5031978;28;20035;-55
2024/03/04 12:07:05;;;;;;;39.50;24.60;;;19.60;57.60;;;;;;5039788;28;20031;-49
2024/03/04 12:09:31;;;;;;;47.95;23.80;;;19.60;57.00;;;;;;5028095;28;20040;-53
2024/03/04 12:11:57;;;;;;;38.63;23.10;;;19.50;57.00;;;;;;5034487;28;20048;-48
2024/03/04 12:14:23;;;;;;;41.72;22.88;;;19.50;56.90;;;;;;5024488;28;20029;-50
2024/03/04 12:16:48;;;;;;;37.40;24.17;;;19.50;56.90;;;;;;5031650;28;20044;-49
2024/03/04 12:19:14;;;;;;;37.33;22.35;;;19.50;56.90;;;;;;5028011;28;20030;-54
2024/03/04 12:21:40;;;;;;;36.97;22.80;;;19.50;56.90;;;;;;5029435;28;20738;-49
2024/03/04 12:24:09;;;;;;;38.45;24.52;;;19.60;56.90;;;;;;5027383;28;20062;-50
2024/03/04 12:26:35;;;;;;;31.75;22.63;;;19.50;56.90;;;;;;5026719;28;20029;-52
2024/03/04 12:29:08;;;;;;;35.53;22.90;;;19.50;56.90;;;;;;5029651;28;20651;-49
2024/03/04 12:31:37;;;;;;;36.05;23.02;;;19.50;57.00;;;;;;5022536;28;20052;-49
2024/03/04 12:34:04;;;;;;;37.45;22.88;;;19.40;57.00;;;;;;5031868;28;20029;-52
2024/03/04 12:36:29;;;;;;;32.40;22.42;;;19.40;57.00;;;;;;5030815;28;20848;-52
2024/03/04 12:38:56;;;;;;;33.92;23.30;;;19.40;57.10;;;;;;5032609;28;20041;-48
2024/03/04 12:41:25;;;;;;;35.60;23.70;;;19.40;57.20;;;;;;5026045;28;20513;-55
2024/03/04 12:43:52;;;;;;;35.65;22.55;;;19.30;57.20;;;;;;5031411;28;20065;-48